createdAt,value
2022-12-06T00:01:26.062Z,96376.53
2022-12-06T00:03:55.207Z,96330.78
2022-12-06T00:06:23.806Z,96335.44
2022-12-06T00:08:51.351Z,96328.19
2022-12-06T00:11:20.774Z,96358.81
2022-12-06T00:13:48.545Z,96347.41
2022-12-06T00:16:16.958Z,96352.88
2022-12-06T00:18:45.596Z,96350.78
2022-12-06T00:21:23.456Z,96316.22
2022-12-06T00:23:56.414Z,96327.91
2022-12-06T00:26:23.662Z,96279.31
2022-12-06T00:28:53.744Z,96308.38
2022-12-06T00:31:22.363Z,96312.47
2022-12-06T00:33:49.089Z,96305.44
2022-12-06T00:36:24.046Z,96239.72
2022-12-06T00:38:51.447Z,96311.06
2022-12-06T00:41:21.118Z,96294.94
2022-12-06T00:43:48.787Z,96324.03
2022-12-06T00:46:18.268Z,96306.91
2022-12-06T00:48:46.353Z,96330.81
2022-12-06T00:51:13.397Z,96332.38
2022-12-06T00:53:40.582Z,96291.84
2022-12-06T00:56:07.729Z,96328.22
2022-12-06T00:58:34.488Z,96328.50
2022-12-06T01:01:15.562Z,96333.94
2022-12-06T01:03:43.359Z,96341.53
2022-12-06T01:06:13.450Z,96344.13
2022-12-06T01:08:40.944Z,96338.66
2022-12-06T01:11:08.711Z,96332.69
2022-12-06T01:13:35.941Z,96330.09
2022-12-06T01:16:11.570Z,96307.00
2022-12-06T01:18:39.192Z,96313.75
2022-12-06T01:21:08.435Z,96342.34
2022-12-06T01:23:35.082Z,96333.03
2022-12-06T01:26:02.100Z,96309.06
2022-12-06T01:28:28.908Z,96332.69
2022-12-06T01:30:55.682Z,96304.41
2022-12-06T01:33:22.531Z,96311.22
2022-12-06T01:35:49.212Z,96305.78
2022-12-06T01:38:15.966Z,96285.50
2022-12-06T01:40:45.724Z,96323.75
2022-12-06T01:43:32.391Z,96314.28
2022-12-06T01:46:23.956Z,96271.69
2022-12-06T01:48:57.311Z,96282.84
2022-12-06T01:51:24.467Z,96318.38
2022-12-06T01:53:53.439Z,96228.31
2022-12-06T01:56:21.098Z,96316.09
2022-12-06T01:58:51.079Z,96295.09
2022-12-06T02:01:18.108Z,96286.47
2022-12-06T02:03:46.025Z,96300.81
2022-12-06T02:06:12.905Z,96282.63
2022-12-06T02:08:39.648Z,96312.72
2022-12-06T02:11:06.407Z,96304.91
2022-12-06T02:13:35.562Z,96312.44
2022-12-06T02:16:08.340Z,96278.69
2022-12-06T02:18:34.901Z,96308.28
2022-12-06T02:21:25.871Z,96311.19
2022-12-06T02:24:15.839Z,96307.50
2022-12-06T02:27:05.550Z,96302.28
2022-12-06T02:29:59.626Z,96266.97
2022-12-06T02:32:34.549Z,96297.91
2022-12-06T02:35:12.987Z,96294.22
2022-12-06T02:38:02.854Z,96294.50
2022-12-06T02:40:36.669Z,96271.16
2022-12-06T02:43:08.365Z,96251.94
2022-12-06T02:45:41.772Z,96303.91
2022-12-06T02:48:10.530Z,96256.09
2022-12-06T02:50:44.917Z,96295.59
2022-12-06T02:53:17.037Z,96302.31
2022-12-06T02:55:45.203Z,96308.59
2022-12-06T02:58:11.801Z,96264.69
2022-12-06T03:00:58.203Z,96311.97
2022-12-06T03:03:27.864Z,96300.53
2022-12-06T03:06:03.664Z,96306.75
2022-12-06T03:08:39.661Z,96311.19
2022-12-06T03:11:06.763Z,96243.16
2022-12-06T03:13:59.860Z,96304.41
2022-12-06T03:16:30.161Z,96288.28
2022-12-06T03:19:06.176Z,96300.22
2022-12-06T03:21:38.729Z,96294.28
2022-12-06T03:24:10.074Z,96265.94
2022-12-06T03:26:38.520Z,96264.94
2022-12-06T03:29:09.400Z,96265.16
2022-12-06T03:31:40.498Z,96291.63
2022-12-06T03:34:15.172Z,96272.72
2022-12-06T03:36:44.896Z,96282.31
2022-12-06T03:39:16.092Z,96267.97
2022-12-06T03:41:51.933Z,96265.91
2022-12-06T03:44:19.283Z,96241.25
2022-12-06T03:46:50.390Z,96222.81
2022-12-06T03:49:36.350Z,96268.00
2022-12-06T03:52:03.899Z,96253.19
2022-12-06T03:54:30.530Z,96279.44
2022-12-06T03:56:57.210Z,96274.75
2022-12-06T03:59:23.833Z,96285.16
2022-12-06T04:01:50.402Z,96286.97
2022-12-06T04:04:17.068Z,96264.41
2022-12-06T04:06:43.672Z,96247.53
2022-12-06T04:09:28.585Z,96250.09
2022-12-06T04:11:55.156Z,96243.59
2022-12-06T04:14:21.760Z,96245.47
2022-12-06T04:17:07.010Z,96136.94
2022-12-06T04:19:33.635Z,96229.88
2022-12-06T04:22:18.951Z,96225.44
2022-12-06T04:24:45.603Z,96216.63
2022-12-06T04:27:30.863Z,96140.81
2022-12-06T04:30:17.238Z,96227.75
2022-12-06T04:33:02.595Z,96194.25
2022-12-06T04:35:47.686Z,96214.53
2022-12-06T04:38:32.874Z,96239.16
2022-12-06T04:40:59.438Z,96248.03
2022-12-06T04:43:44.246Z,96222.84
2022-12-06T04:46:12.809Z,96244.63
2022-12-06T04:48:40.865Z,96231.66
2022-12-06T04:51:07.964Z,96214.00
2022-12-06T04:53:34.607Z,96193.47
2022-12-06T04:56:01.705Z,96222.31
2022-12-06T04:58:28.327Z,96174.56
2022-12-06T05:00:55.447Z,96211.88
2022-12-06T05:03:22.248Z,96221.47
2022-12-06T05:05:49.692Z,96196.31
2022-12-06T05:08:16.285Z,96198.91
2022-12-06T05:10:47.914Z,96225.66
2022-12-06T05:13:15.760Z,96217.06
2022-12-06T05:15:54.600Z,96218.09
2022-12-06T05:18:21.704Z,96207.69
2022-12-06T05:20:48.300Z,96183.81
2022-12-06T05:23:15.054Z,96191.84
2022-12-06T05:25:41.654Z,96207.13
2022-12-06T05:28:09.105Z,96185.59
2022-12-06T05:30:36.224Z,96219.63
2022-12-06T05:33:02.902Z,96217.81
2022-12-06T05:35:29.512Z,96212.91
2022-12-06T05:37:56.083Z,96220.91
2022-12-06T05:40:23.127Z,96183.03
2022-12-06T05:42:49.800Z,96151.88
2022-12-06T05:45:16.402Z,96195.19
2022-12-06T05:47:43.025Z,96162.75
2022-12-06T05:50:10.240Z,96203.47
2022-12-06T05:52:36.841Z,96154.72
2022-12-06T05:55:03.710Z,96212.88
2022-12-06T05:57:30.332Z,96172.44
2022-12-06T05:59:57.198Z,96170.03
2022-12-06T06:02:23.953Z,96211.56
2022-12-06T06:04:50.665Z,96223.75
2022-12-06T06:07:17.256Z,96206.34
2022-12-06T06:09:43.852Z,96204.78
2022-12-06T06:12:12.710Z,96196.53
2022-12-06T06:14:39.787Z,96214.34
2022-12-06T06:17:06.454Z,96178.03
2022-12-06T06:19:33.128Z,96202.16
2022-12-06T06:21:59.715Z,96169.44
2022-12-06T06:24:26.333Z,96180.09
2022-12-06T06:26:52.954Z,96213.00
2022-12-06T06:29:19.609Z,96193.28
2022-12-06T06:31:46.503Z,96182.13
2022-12-06T06:34:13.178Z,96219.53
2022-12-06T06:36:44.073Z,96223.69
2022-12-06T06:39:12.433Z,96214.88
2022-12-06T06:41:39.061Z,96214.34
2022-12-06T06:44:05.705Z,96222.88
2022-12-06T06:46:34.955Z,96226.75
2022-12-06T06:49:02.145Z,96224.25
2022-12-06T06:51:31.379Z,96219.56
2022-12-06T06:53:58.727Z,96194.16
2022-12-06T06:56:26.086Z,96202.19
2022-12-06T06:58:53.213Z,96204.25
2022-12-06T07:01:23.169Z,96203.47
2022-12-06T07:03:51.834Z,96228.41
2022-12-06T07:06:18.685Z,96234.91
2022-12-06T07:08:46.602Z,96216.16
2022-12-06T07:11:14.990Z,96230.69
2022-12-06T07:13:45.747Z,96225.03
2022-12-06T07:16:16.735Z,96227.09
2022-12-06T07:18:46.485Z,96190.81
2022-12-06T07:21:15.625Z,96225.03
2022-12-06T07:23:42.430Z,96199.09
2022-12-06T07:26:14.387Z,96217.25
2022-12-06T07:28:43.327Z,96212.88
2022-12-06T07:31:22.192Z,96223.22
2022-12-06T07:33:52.330Z,96238.81
2022-12-06T07:36:19.007Z,96209.22
2022-12-06T07:38:51.409Z,96236.22
2022-12-06T07:41:38.017Z,96235.16
2022-12-06T07:44:31.686Z,96237.47
2022-12-06T07:46:58.571Z,96240.84
2022-12-06T07:49:25.346Z,96225.53
2022-12-06T07:51:54.127Z,96186.88
2022-12-06T07:54:21.320Z,96229.41
2022-12-06T07:56:48.108Z,96207.63
2022-12-06T07:59:14.753Z,96188.41
2022-12-06T08:01:41.567Z,96214.59
2022-12-06T08:04:08.432Z,96185.78
2022-12-06T08:06:35.757Z,96217.13
2022-12-06T08:09:02.791Z,96217.13
2022-12-06T08:11:29.588Z,96184.22
2022-12-06T08:13:56.175Z,96193.06
2022-12-06T08:16:23.044Z,96189.34
2022-12-06T08:18:49.841Z,96212.38
2022-12-06T08:21:16.650Z,96196.06
2022-12-06T08:23:43.237Z,96181.88
2022-12-06T08:26:13.906Z,96215.47
2022-12-06T08:28:41.432Z,96178.94
2022-12-06T08:31:14.458Z,96195.78
2022-12-06T08:33:41.739Z,96184.38
2022-12-06T08:36:14.544Z,96205.28
2022-12-06T08:38:41.533Z,96199.16
2022-12-06T08:41:27.758Z,96214.69
2022-12-06T08:43:56.888Z,96201.78
2022-12-06T08:46:23.993Z,96218.91
2022-12-06T08:48:51.289Z,96192.41
2022-12-06T08:51:17.897Z,96223.84
2022-12-06T08:53:44.588Z,96218.91
2022-12-06T08:56:11.487Z,96219.13
2022-12-06T08:58:38.188Z,96202.03
2022-12-06T09:01:16.708Z,96221.50
2022-12-06T09:03:43.692Z,96116.69
2022-12-06T09:06:11.096Z,96218.06
2022-12-06T09:08:38.117Z,96206.94
2022-12-06T09:11:06.506Z,96191.44
2022-12-06T09:13:34.549Z,96191.38
2022-12-06T09:16:06.013Z,96165.69
2022-12-06T09:18:33.406Z,96213.19
2022-12-06T09:21:00.089Z,96195.84
2022-12-06T09:23:27.448Z,96220.44
2022-12-06T09:25:54.139Z,96216.53
2022-12-06T09:28:20.751Z,96207.97
2022-12-06T09:30:47.444Z,96216.53
2022-12-06T09:33:14.103Z,96182.50
2022-12-06T09:35:40.720Z,96175.50
2022-12-06T09:38:07.730Z,96205.31
2022-12-06T09:40:43.484Z,96184.38
2022-12-06T09:43:31.471Z,96217.28
2022-12-06T09:46:39.794Z,96212.88
2022-12-06T09:49:13.141Z,96204.03
2022-12-06T09:52:33.931Z,96188.97
2022-12-06T09:55:18.488Z,96161.44
2022-12-06T09:58:19.232Z,96193.56
2022-12-06T10:00:53.711Z,96180.38
2022-12-06T10:03:53.727Z,96148.38
2022-12-06T10:06:23.199Z,96185.19
2022-12-06T10:08:49.904Z,96191.25
2022-12-06T10:11:28.719Z,96184.75
2022-12-06T10:14:43.010Z,96191.47
2022-12-06T10:17:26.603Z,96180.56
2022-12-06T10:20:02.413Z,96186.81
2022-12-06T10:23:05.490Z,96184.16
2022-12-06T10:25:35.641Z,96190.19
2022-12-06T10:28:12.841Z,96174.34
2022-12-06T10:30:53.379Z,96185.50
2022-12-06T10:33:42.376Z,96153.78
2022-12-06T10:36:13.048Z,96108.94
2022-12-06T10:38:48.765Z,96175.00
2022-12-06T10:41:22.385Z,96156.53
2022-12-06T10:43:54.991Z,96170.00
2022-12-06T10:47:04.940Z,96175.50
2022-12-06T10:49:50.692Z,96169.47
2022-12-06T10:52:25.947Z,96173.44
2022-12-06T10:55:19.175Z,96155.00
2022-12-06T10:57:55.074Z,96139.72
2022-12-06T11:00:27.236Z,96169.72
2022-12-06T11:03:06.026Z,96100.28
2022-12-06T11:05:37.992Z,96168.47
2022-12-06T11:08:13.706Z,96139.38
2022-12-06T11:10:44.157Z,96150.00
2022-12-06T11:13:30.906Z,96162.66
2022-12-06T11:16:22.169Z,96156.94
2022-12-06T11:18:49.489Z,96114.44
2022-12-06T11:21:31.224Z,96113.09
2022-12-06T11:24:19.830Z,96148.53
2022-12-06T11:26:54.094Z,96146.97
2022-12-06T11:29:20.848Z,96140.50
2022-12-06T11:31:55.741Z,96153.25
2022-12-06T11:34:31.752Z,96148.31
2022-12-06T11:37:00.526Z,96151.06
2022-12-06T11:39:29.000Z,96117.41
2022-12-06T11:41:59.678Z,96141.22
2022-12-06T11:44:42.485Z,96128.00
2022-12-06T11:47:19.244Z,96128.25
2022-12-06T11:49:47.339Z,96119.44
2022-12-06T11:52:22.133Z,96119.22
2022-12-06T11:54:55.150Z,96137.88
2022-12-06T11:58:06.428Z,96140.56
2022-12-06T12:00:33.084Z,96108.44
2022-12-06T12:02:59.747Z,96141.06
2022-12-06T12:05:36.147Z,96126.81
2022-12-06T12:08:20.206Z,96128.09
2022-12-06T12:10:59.206Z,96135.59
2022-12-06T12:13:44.178Z,96130.63
2022-12-06T12:16:21.072Z,96108.66
2022-12-06T12:19:02.897Z,96119.00
2022-12-06T12:21:37.653Z,96131.25
2022-12-06T12:24:06.252Z,96102.47
2022-12-06T12:26:39.472Z,96083.53
2022-12-06T12:29:09.003Z,96115.34
2022-12-06T12:31:47.336Z,96114.59
2022-12-06T12:34:28.545Z,96103.88
2022-12-06T12:36:58.898Z,96076.16
2022-12-06T12:39:37.265Z,96081.09
2022-12-06T12:42:05.158Z,96072.28
2022-12-06T12:44:38.741Z,96092.94
2022-12-06T12:47:18.832Z,96099.72
2022-12-06T12:49:59.401Z,96085.16
2022-12-06T12:52:38.063Z,96088.53
2022-12-06T12:55:27.366Z,96097.91
2022-12-06T12:57:59.296Z,96099.03
2022-12-06T13:00:34.807Z,96107.56
2022-12-06T13:03:28.550Z,96100.03
2022-12-06T13:05:57.580Z,96083.53
2022-12-06T13:08:30.499Z,96105.44
2022-12-06T13:10:59.876Z,96075.81
2022-12-06T13:13:37.007Z,96109.38
2022-12-06T13:16:10.497Z,96101.75
2022-12-06T13:18:51.079Z,96080.00
2022-12-06T13:21:25.713Z,96103.59
2022-12-06T13:23:55.120Z,96066.50
2022-12-06T13:26:39.532Z,96101.53
2022-12-06T13:29:40.784Z,96100.84
2022-12-06T13:32:15.431Z,96084.81
2022-12-06T13:34:52.151Z,96076.56
2022-12-06T13:37:52.808Z,96093.19
2022-12-06T13:40:43.534Z,96091.94
2022-12-06T13:43:25.293Z,96103.13
2022-12-06T13:46:13.147Z,96091.25
2022-12-06T13:48:55.167Z,96060.25
2022-12-06T13:51:30.916Z,96096.22
2022-12-06T13:54:03.597Z,96102.19
2022-12-06T13:56:34.207Z,96099.84
2022-12-06T13:59:24.863Z,96088.81
2022-12-06T14:01:58.681Z,96083.59
2022-12-06T14:06:54.648Z,96102.03
2022-12-06T14:09:23.755Z,96081.97
2022-12-06T14:11:51.470Z,96074.09
2022-12-06T14:14:20.986Z,96073.84
2022-12-06T14:17:00.498Z,96096.75
2022-12-06T14:19:48.520Z,96085.31
2022-12-06T14:22:31.674Z,96072.81
2022-12-06T14:25:01.582Z,96098.09
2022-12-06T14:27:34.249Z,96071.16
2022-12-06T14:30:17.978Z,96092.97
2022-12-06T14:32:51.587Z,96107.13
2022-12-06T14:35:24.346Z,96104.59
2022-12-06T14:37:53.510Z,96098.44
2022-12-06T14:40:45.742Z,96074.53
2022-12-06T14:43:17.354Z,96106.69
2022-12-06T14:45:45.145Z,96101.88
2022-12-06T14:48:12.893Z,96100.13
2022-12-06T14:50:52.626Z,96099.00
2022-12-06T14:53:37.372Z,96105.34
2022-12-06T14:56:26.373Z,96100.38
2022-12-06T14:58:53.573Z,96106.19
2022-12-06T15:01:23.020Z,96101.72
2022-12-06T15:04:05.513Z,96068.22
2022-12-06T15:06:36.965Z,96067.78
2022-12-06T15:09:15.195Z,96090.25
2022-12-06T15:12:04.018Z,96092.69
2022-12-06T15:14:40.402Z,96095.72
2022-12-06T15:17:10.122Z,96100.06
2022-12-06T15:19:47.064Z,96093.06
2022-12-06T15:22:24.891Z,96065.19
2022-12-06T15:24:55.346Z,96101.00
2022-12-06T15:27:23.363Z,96071.50
2022-12-06T15:29:50.104Z,96104.19
2022-12-06T15:32:19.498Z,96115.31
2022-12-06T15:34:46.526Z,96119.72
2022-12-06T15:37:37.991Z,96118.13
2022-12-06T15:40:02.184Z,96062.44
2022-12-06T15:42:29.357Z,96109.91
2022-12-06T15:44:55.967Z,96079.84
2022-12-06T15:47:22.606Z,96113.50
2022-12-06T15:49:51.861Z,96087.13
2022-12-06T15:52:23.038Z,96095.22
2022-12-06T15:54:49.993Z,96093.44
2022-12-06T15:57:16.553Z,96090.09
2022-12-06T15:59:43.116Z,96106.69
2022-12-06T16:02:15.991Z,96106.09
2022-12-06T16:04:43.940Z,96114.72
2022-12-06T16:07:11.978Z,96110.25
2022-12-06T16:09:38.655Z,96076.78
2022-12-06T16:12:09.137Z,96110.00
2022-12-06T16:14:35.799Z,96115.47
2022-12-06T16:17:02.429Z,96116.25
2022-12-06T16:19:48.998Z,96059.50
2022-12-06T16:22:15.676Z,96137.50
2022-12-06T16:24:42.292Z,96087.44
2022-12-06T16:27:08.885Z,96103.25
2022-12-06T16:29:35.557Z,96103.50
2022-12-06T16:32:02.283Z,96139.31
2022-12-06T16:34:29.658Z,96083.47
2022-12-06T16:37:06.420Z,96145.50
2022-12-06T16:39:34.607Z,96142.88
2022-12-06T16:42:03.365Z,96134.34
2022-12-06T16:44:30.079Z,96117.47
2022-12-06T16:46:57.275Z,96146.75
2022-12-06T16:52:14.004Z,96120.16
2022-12-06T16:54:43.684Z,96090.84
2022-12-06T16:57:14.256Z,96149.47
2022-12-06T16:59:42.247Z,96147.63
2022-12-06T17:02:30.670Z,96145.78
2022-12-06T17:05:06.263Z,96138.03
2022-12-06T17:07:34.559Z,96162.41
2022-12-06T17:10:01.379Z,96167.38
2022-12-06T17:12:28.526Z,96161.00
2022-12-06T17:14:55.117Z,96150.63
2022-12-06T17:17:22.621Z,96147.03
2022-12-06T17:19:49.817Z,96126.03
2022-12-06T17:22:16.728Z,96127.34
2022-12-06T17:24:43.700Z,96125.56
2022-12-06T17:27:10.650Z,96123.47
2022-12-06T17:29:37.356Z,96145.72
2022-12-06T17:32:04.219Z,96094.63
2022-12-06T17:34:31.326Z,96126.28
2022-12-06T17:36:59.010Z,96140.03
2022-12-06T17:39:26.034Z,96148.31
2022-12-06T17:42:11.295Z,96142.13
2022-12-06T17:44:39.736Z,96131.91
2022-12-06T17:47:06.805Z,96135.50
2022-12-06T17:49:35.881Z,96155.19
2022-12-06T17:52:02.607Z,96137.84
2022-12-06T17:54:29.486Z,96163.97
2022-12-06T17:56:56.256Z,96116.78
2022-12-06T17:59:26.099Z,96122.50
2022-12-06T18:04:41.385Z,96161.22
2022-12-06T18:07:08.111Z,96145.72
2022-12-06T18:09:34.684Z,96136.16
2022-12-06T18:12:03.087Z,96156.94
2022-12-06T18:14:29.742Z,96123.69
2022-12-06T18:16:56.394Z,96168.34
2022-12-06T18:19:23.468Z,96164.81
2022-12-06T18:21:52.164Z,96164.50
2022-12-06T18:24:23.183Z,96131.84
2022-12-06T18:26:51.909Z,96107.97
2022-12-06T18:29:22.622Z,96171.53
2022-12-06T18:31:50.335Z,96113.44
2022-12-06T18:34:17.661Z,96170.50
2022-12-06T18:36:44.436Z,96173.88
2022-12-06T18:39:16.708Z,96174.41
2022-12-06T18:41:44.598Z,96122.81
2022-12-06T18:44:12.441Z,96173.94
2022-12-06T18:46:42.234Z,96164.78
2022-12-06T18:49:13.213Z,96171.28
2022-12-06T18:51:39.985Z,96156.25
2022-12-06T18:54:08.055Z,96129.34
2022-12-06T18:56:35.476Z,96163.78
2022-12-06T18:59:07.128Z,96144.34
2022-12-06T19:01:36.234Z,96109.56
2022-12-06T19:04:04.986Z,96156.72
2022-12-06T19:06:34.134Z,96121.44
2022-12-06T19:09:04.458Z,96156.28
2022-12-06T19:11:31.400Z,96147.19
2022-12-06T19:14:00.010Z,96156.78
2022-12-06T19:16:42.496Z,96154.19
2022-12-06T19:19:21.603Z,96152.19
2022-12-06T19:21:49.709Z,96129.31
2022-12-06T19:24:20.139Z,96158.03
2022-12-06T19:26:48.641Z,96117.56
2022-12-06T19:29:16.450Z,96157.47
2022-12-06T19:31:43.644Z,96120.66
2022-12-06T19:34:17.372Z,96157.16
2022-12-06T19:36:44.809Z,96159.28
2022-12-06T19:39:13.941Z,96124.81
2022-12-06T19:42:00.414Z,96156.75
2022-12-06T19:44:27.701Z,96157.88
2022-12-06T19:46:54.525Z,96121.81
2022-12-06T19:49:23.156Z,96154.13
2022-12-06T19:51:50.576Z,96133.69
2022-12-06T19:54:20.582Z,96160.91
2022-12-06T19:56:49.853Z,96172.31
2022-12-06T19:59:16.620Z,96153.16
2022-12-06T20:01:45.723Z,96169.19
2022-12-06T20:04:22.631Z,96174.47
2022-12-06T20:06:50.950Z,96163.84
2022-12-06T20:09:19.145Z,96153.13
2022-12-06T20:12:12.897Z,96156.25
2022-12-06T20:14:42.676Z,96164.78
2022-12-06T20:17:15.315Z,96166.59
2022-12-06T20:19:51.423Z,96170.50
2022-12-06T20:22:19.792Z,96173.91
2022-12-06T20:24:46.563Z,96162.53
2022-12-06T20:27:13.287Z,96174.16
2022-12-06T20:29:40.313Z,96172.34
2022-12-06T20:32:07.127Z,96173.69
2022-12-06T20:34:34.844Z,96154.28
2022-12-06T20:37:03.910Z,96134.03
2022-12-06T20:39:33.028Z,96154.75
2022-12-06T20:41:59.760Z,96166.91
2022-12-06T20:44:26.497Z,96160.97
2022-12-06T20:46:54.205Z,96159.16
2022-12-06T20:49:21.120Z,96167.19
2022-12-06T20:51:52.558Z,96142.81
2022-12-06T20:54:20.032Z,96117.13
2022-12-06T20:56:47.233Z,96139.41
2022-12-06T20:59:14.066Z,96153.16
2022-12-06T21:01:42.038Z,96166.91
2022-12-06T21:04:12.684Z,96158.34
2022-12-06T21:06:39.522Z,96161.72
2022-12-06T21:09:06.277Z,96161.44
2022-12-06T21:11:33.071Z,96141.75
2022-12-06T21:13:59.710Z,96167.44
2022-12-06T21:16:29.631Z,96159.38
2022-12-06T21:19:07.675Z,96152.41
2022-12-06T21:21:37.191Z,96112.72
2022-12-06T21:24:10.191Z,96155.75
2022-12-06T21:26:37.428Z,96156.53
2022-12-06T21:29:05.034Z,96160.19
2022-12-06T21:31:37.049Z,96158.63
2022-12-06T21:34:04.336Z,96154.75
2022-12-06T21:36:30.950Z,96116.09
2022-12-06T21:38:58.345Z,96130.09
2022-12-06T21:41:25.857Z,96148.25
2022-12-06T21:43:52.685Z,96144.38
2022-12-06T21:46:22.316Z,96158.41
2022-12-06T21:48:57.758Z,96118.72
2022-12-06T21:51:27.507Z,96150.06
2022-12-06T21:53:54.420Z,96141.78
2022-12-06T21:56:26.291Z,96150.56
2022-12-06T21:58:53.334Z,96129.31
2022-12-06T22:01:24.083Z,96156.81
2022-12-06T22:03:53.144Z,96158.13
2022-12-06T22:06:20.417Z,96105.72
2022-12-06T22:08:48.367Z,96128.06
2022-12-06T22:11:17.683Z,96152.94
2022-12-06T22:13:45.586Z,96146.22
2022-12-06T22:16:13.214Z,96155.84
2022-12-06T22:18:45.491Z,96143.91
2022-12-06T22:21:24.616Z,96149.34
2022-12-06T22:23:51.993Z,96141.59
2022-12-06T22:26:22.600Z,96155.88
2022-12-06T22:28:50.440Z,96104.25
2022-12-06T22:31:22.269Z,96122.13
2022-12-06T22:33:51.146Z,96147.56
2022-12-06T22:36:19.726Z,96152.22
2022-12-06T22:38:51.610Z,96154.31
2022-12-06T22:41:22.213Z,96114.38
2022-12-06T22:44:02.987Z,96148.88
2022-12-06T22:46:30.529Z,96143.38
2022-12-06T22:48:58.572Z,96148.59
2022-12-06T22:51:31.023Z,96127.28
2022-12-06T22:54:02.428Z,96120.28
2022-12-06T22:56:29.865Z,96107.81
2022-12-06T22:58:58.463Z,96138.47
2022-12-06T23:01:27.629Z,96132.72
2022-12-06T23:03:54.830Z,96120.81
2022-12-06T23:06:24.019Z,96132.50
2022-12-06T23:08:50.833Z,96118.19
2022-12-06T23:11:20.594Z,96109.88
2022-12-06T23:13:47.309Z,96124.91
2022-12-06T23:16:18.396Z,96129.84
2022-12-06T23:18:48.279Z,96102.34
2022-12-06T23:21:24.732Z,96113.25
2022-12-06T23:23:57.604Z,96123.84
2022-12-06T23:26:30.911Z,96117.59
2022-12-06T23:28:57.565Z,96123.84
2022-12-06T23:31:26.582Z,96129.53
2022-12-06T23:33:56.473Z,96129.78
2022-12-06T23:36:25.742Z,96125.38
2022-12-06T23:38:52.714Z,96115.78
2022-12-06T23:41:22.408Z,96125.38
2022-12-06T23:43:49.479Z,96104.88
2022-12-06T23:46:22.387Z,96118.38
2022-12-06T23:48:50.464Z,96113.94
2022-12-06T23:51:20.428Z,96087.75
2022-12-06T23:53:52.226Z,96113.72
2022-12-06T23:56:21.374Z,96085.72
2022-12-06T23:58:50.474Z,96122.09
